Wichita Mid Continent Airport
KICT : rendu visible

Aérodrome :











RETROUVEZ-NOUS SUR...

 
LOGIN :

S'inscrire | Disclaimer

   EN    FR    IT 

 









Légende :    VFR   VFR Marginal   IFR   IFR Intensif   IFR Très Intensif
Visi : 
Plafond : 
>= 8 km
>= 3000ft
5 à 8 km
1000 à 3000 ft
1500m à 5 km
500 à 1000 ft
800 à 1500m
200 à 500 ft
< 800m
< 200 ft
Symboles :   Orages  Brouillard  Fortes neiges  Fortes précipitations  Vent > 20 kt







- Altitude de l'aérodrome : 1333 ft
- Code IATA : ICT


KICT - Wichita Mid Continent

DERNIER METAR :
  • 160259Z 14009KT 10SM TS SCT045CB 26/22 A2978 RMK AO2 OCNL LTGICCG VC W-N TS W-N MOVG NE T02610222 $

METARs EXPIRÉS :
  • 160253Z 14011KT 10SM SCT045 26/22 A2978 RMK AO2 SLP068 OCNL LTGICCG DSNT W-NW SHRA DSNT NW MOVG NE T02610222 53002 $
  • 160153Z 15007KT 10SM FEW046 27/22 A2977 RMK AO2 SLP069 T02670217 $
  • 160053Z 17006KT 10SM SCT045 29/21 A2977 RMK AO2 SLP066 T02890211 $

TAF KICT
Valide du 16 à 03h jusqu'au 17 à 00h UTC


160328Z 1603/1624 36007KT P6SM VCTS BKN050CB
TEMPO 1603/1605 VRB30G40KT 2SM +TSRA SCT025 BKN050CB
FM161200 04007KT P6SM SCT030 BKN250
FIR KZKC / Amérique du Nord



MET'MAP, la Météo Aéronautique d'un coup d'oeil ! - Copyright ORBIFLY Décembre 2007 - Disclaimer

ORBIFLY MET'MAP TEAM :

Programmation & Développement : Alexandra Zaïnal
Conception & Développement : Baudouin d'Aumeries
Co-Programmation & Développement : Marc-Olivier Méhu
Soutien technique & logistique : Manuel Goepfert

Contact : metmap@orbifly.com




SOURCES & CREDITS :

   NOAA       Earth
Advisory